Terminal Aerodrome Forecast
Issued by NWS

Home | Current Version | Previous Version | Text Only | Print | Product List | Glossary On
Versions: 1 2 3 4 5 6 7 8 9 10 11 12 13
000
FTUS46 KMTR 062300
TAFSTS
TAF
KSTS 062321Z 0700/0724 19006KT P6SM SKC
     FM070300 VRB03KT P6SM SKC
     FM071000 00000KT 4SM BR SKC
     FM071700 30003KT P6SM SKC
     FM072200 18006KT P6SM SKC=

USA.gov is the U.S. government's official web portal to all federal, state and local government web resources and services.